ADDS METAR Data INFO
IDs: Format: Raw Decoded Include TAF

Data at: 1016 UTC 14 Dec 2017

KBPT 140953Z AUTO 23003KT 10SM CLR 06/04 A2996 RMK AO2 SLP146 T00560044
KBPT 140853Z AUTO 21003KT 10SM CLR 05/03 A2996 RMK AO2 SLP145 T00500033 57002
KBPT 140753Z AUTO 24003KT 10SM CLR 05/04 A2996 RMK AO2 SLP146 T00500044
KBPT 140653Z AUTO 26003KT 10SM CLR 07/05 A2997 RMK AO2 SLP147 T00670050
KBPT 140553Z AUTO 23003KT 10SM CLR 07/05 A2997 RMK AO2 SLP148 T00670050 10078 20056 401561006 58012
KBPT 140453Z AUTO 23003KT 10SM CLR 07/05 A2998 RMK AO2 SLP152 T00720050
KBPT 140353Z AUTO 00000KT 10SM CLR 07/05 A3000 RMK AO2 SLP157 T00670050
KBPT 140253Z 00000KT 10SM CLR 06/04 A3000 RMK AO2 SLP159 T00610044 58006
KBPT 140153Z 18003KT 10SM CLR 07/04 A3001 RMK AO2 SLP163 T00670044
KBPT 140053Z 19004KT 10SM CLR 07/04 A3002 RMK AO2 SLP165 T00720039
KBPT 132353Z 00000KT 10SM CLR 08/04 A3002 RMK AO2 SLP165 T00830044 10156 20083 56013
KBPT 132253Z 24004KT 10SM CLR 11/04 A3004 RMK AO2 SLP171 T01110039
KBPT 132153Z 23007KT 10SM CLR 14/03 A3003 RMK AO2 SLP170 T01390033
KBPT 132053Z 22008KT 10SM CLR 15/03 A3006 RMK AO2 SLP178 T01500033 56032
KBPT 131953Z 23010KT 10SM CLR 14/03 A3008 RMK AO2 SLP184 T01440028
KBPT 131853Z 22010KT 10SM CLR 16/02 A3011 RMK AO2 SLP195 T01560017
KBPT 131753Z 10SM CLR 15/02 A3015 RMK AO2 SLP210 T01500022 10150 21006 58011 $
KBPT 131653Z 18008KT 10SM CLR 14/M02 A3019 RMK AO2 SLP221 T01391017 $
KBPT 131553Z 18004KT 10SM CLR 11/03 A3019 RMK AO2 SLP223 T01060028 $
KBPT 131453Z 00000KT 10SM 07/04 A3018 RMK AO2 SLP220 T00670039 $
KBPT 131353Z 10SM CLR 02/01 A3019 RMK AO2 SLP222 T00170006
KBPT 131253Z 10SM CLR M01/M02 A3018 RMK AO2 SLP217 T10061017 $
KBPT 131153Z 10SM CLR 00/M01 A3017 RMK AO2 SLP214 T00001011 10033 20000 56012 $
KBPT 131053Z AUTO 10SM CLR 01/M01 A3017 RMK AO2 SLP215 T00061011 $
KBPT 130953Z AUTO 10SM CLR 01/M01 A3018 RMK AO2 SLP219 T00111006 $
KBPT 130853Z AUTO 10SM CLR 01/M01 A3020 RMK AO2 SLP226 T00111006 56007 $
KBPT 130753Z AUTO 10SM CLR 01/M01 A3020 RMK AO2 SLP227 T00111006 $
KBPT 130653Z AUTO 10SM CLR 02/01 A3021 RMK AO2 SLP228 T00220006 $
KBPT 130553Z AUTO 26003KT 10SM CLR 03/01 A3022 RMK AO2 SLP233 T00330006 10106 20022 401830022 50000 $
KBPT 130453Z AUTO 24004KT 10SM CLR 04/01 A3023 RMK AO2 SLP236 T00390011 $
KBPT 130353Z AUTO 00000KT 10SM CLR 03/01 A3022 RMK AO2 SLP234 T00280006 $
KBPT 130253Z 30004KT 10SM CLR 06/01 A3022 RMK AO2 SLP232 T00560011 56001 $
KBPT 130153Z 33004KT 10SM CLR 07/00 A3022 RMK AO2 SLP233 T00720000 $
KBPT 130053Z 34007KT 10SM CLR 09/00 A3022 RMK AO2 SLP232 T00940000 $
KBPT 122353Z 33007KT 10SM CLR 11/00 A3022 RMK AO2 SLP233 T01060000 10183 20106 53008 $
KBPT 122253Z 33007KT 10SM CLR 14/M01 A3021 RMK AO2 SLP228 T01441006 $